createdAt,value
2022-08-16T00:01:16.735Z,24.83
2022-08-16T00:03:44.123Z,30.25
2022-08-16T00:06:12.217Z,33.13
2022-08-16T00:08:45.901Z,24.90
2022-08-16T00:11:15.001Z,28.67
2022-08-16T00:13:53.494Z,26.55
2022-08-16T00:17:05.778Z,35.97
2022-08-16T00:19:13.388Z,37.40
2022-08-16T00:21:41.328Z,38.00
2022-08-16T00:24:11.576Z,35.78
2022-08-16T00:26:43.900Z,30.38
2022-08-16T00:29:12.701Z,32.23
2022-08-16T00:31:59.277Z,30.92
2022-08-16T00:34:41.293Z,30.67
2022-08-16T00:37:17.018Z,29.77
2022-08-16T00:39:46.978Z,37.63
2022-08-16T00:42:30.570Z,38.35
2022-08-16T00:45:09.449Z,39.53
2022-08-16T00:47:40.285Z,41.67
2022-08-16T00:50:11.750Z,41.85
2022-08-16T00:52:42.002Z,44.78
2022-08-16T00:55:18.519Z,40.88
2022-08-16T00:57:59.015Z,38.10
2022-08-16T01:00:28.866Z,39.05
2022-08-16T01:02:57.639Z,39.10
2022-08-16T01:05:25.545Z,42.88
2022-08-16T01:07:53.645Z,44.20
2022-08-16T01:10:32.201Z,38.30
2022-08-16T01:13:20.897Z,38.55
2022-08-16T01:15:52.657Z,36.25
2022-08-16T01:18:40.280Z,36.50
2022-08-16T01:21:33.639Z,31.70
2022-08-16T01:24:02.246Z,33.45
2022-08-16T01:26:33.668Z,37.33
2022-08-16T01:29:05.628Z,35.45
2022-08-16T01:31:42.498Z,32.58
2022-08-16T01:34:22.985Z,33.40
2022-08-16T01:37:01.375Z,36.13
2022-08-16T01:39:30.175Z,36.70
2022-08-16T01:44:37.806Z,31.48
2022-08-16T01:47:07.028Z,29.83
2022-08-16T01:49:45.521Z,33.53
2022-08-16T01:52:27.992Z,33.40
2022-08-16T01:54:58.158Z,34.97
2022-08-16T01:57:27.812Z,34.08
2022-08-16T01:59:58.787Z,36.90
2022-08-16T02:02:28.466Z,33.03
2022-08-16T02:04:57.601Z,36.92
2022-08-16T02:07:25.449Z,32.10
2022-08-16T02:09:58.618Z,32.65
2022-08-16T02:12:49.641Z,25.98
2022-08-16T02:15:16.028Z,33.28
2022-08-16T02:17:43.950Z,27.45
2022-08-16T02:20:12.566Z,35.22
2022-08-16T02:22:40.419Z,31.40
2022-08-16T02:25:10.524Z,30.77
2022-08-16T02:27:38.881Z,29.73
2022-08-16T02:30:35.587Z,31.05
2022-08-16T02:32:59.922Z,33.90
2022-08-16T02:35:27.777Z,33.75
2022-08-16T02:37:56.257Z,37.45
2022-08-16T02:40:24.412Z,40.20
2022-08-16T02:42:54.128Z,39.60
2022-08-16T02:45:24.799Z,42.53
2022-08-16T02:48:01.386Z,37.35
2022-08-16T02:50:53.706Z,36.10
2022-08-16T02:53:29.868Z,37.92
2022-08-16T02:55:57.171Z,35.85
2022-08-16T02:58:25.134Z,34.13
2022-08-16T03:00:55.883Z,30.60
2022-08-16T03:03:25.091Z,44.50
2022-08-16T03:05:53.091Z,32.85
2022-08-16T03:08:51.345Z,32.28
2022-08-16T03:11:18.066Z,34.58
2022-08-16T03:13:51.585Z,35.08
2022-08-16T03:16:38.060Z,36.15
2022-08-16T03:19:06.797Z,32.60
2022-08-16T03:21:38.044Z,34.97
2022-08-16T03:24:28.809Z,32.63
2022-08-16T03:26:59.145Z,31.77
2022-08-16T03:29:31.991Z,28.77
2022-08-16T03:32:01.357Z,33.38
2022-08-16T03:34:29.906Z,27.38
2022-08-16T03:36:59.976Z,29.58
2022-08-16T03:39:27.778Z,26.77
2022-08-16T03:41:59.981Z,26.77
2022-08-16T03:44:43.386Z,29.05
2022-08-16T03:47:18.903Z,27.88
2022-08-16T03:49:47.927Z,34.88
2022-08-16T03:54:53.608Z,29.35
2022-08-16T03:57:31.941Z,29.70
2022-08-16T04:00:20.173Z,29.27
2022-08-16T04:03:06.980Z,29.85
2022-08-16T04:05:36.290Z,25.92
2022-08-16T04:08:15.124Z,27.30
2022-08-16T04:10:51.892Z,24.95
2022-08-16T04:13:20.375Z,29.08
2022-08-16T04:16:06.758Z,24.88
2022-08-16T04:18:36.839Z,23.90
2022-08-16T04:21:04.569Z,26.35
2022-08-16T04:23:31.884Z,23.38
2022-08-16T04:26:02.157Z,27.50
2022-08-16T04:28:55.718Z,26.27
2022-08-16T04:31:18.085Z,29.10
2022-08-16T04:33:51.207Z,29.80
2022-08-16T04:36:19.781Z,26.55
2022-08-16T04:38:49.945Z,35.95
2022-08-16T04:41:17.668Z,43.28
2022-08-16T04:43:45.357Z,32.80
2022-08-16T04:47:01.160Z,43.22
2022-08-16T04:49:02.451Z,35.63
2022-08-16T04:51:35.799Z,38.60
2022-08-16T04:54:04.348Z,37.40
2022-08-16T04:56:33.063Z,36.92
2022-08-16T04:59:01.449Z,34.17
2022-08-16T05:01:56.129Z,42.15
2022-08-16T05:04:19.358Z,39.60
2022-08-16T05:06:47.153Z,42.88
2022-08-16T05:09:16.249Z,40.53
2022-08-16T05:11:43.784Z,34.28
2022-08-16T05:14:11.208Z,34.25
2022-08-16T05:16:47.764Z,40.97
2022-08-16T05:19:19.503Z,37.53
2022-08-16T05:21:46.815Z,34.85
2022-08-16T05:24:14.171Z,34.75
2022-08-16T05:26:52.017Z,37.92
2022-08-16T05:29:20.637Z,36.70
2022-08-16T05:31:53.020Z,36.22
2022-08-16T05:34:22.455Z,34.83
2022-08-16T05:36:51.091Z,36.03
2022-08-16T05:39:19.177Z,45.45
2022-08-16T05:41:49.092Z,38.28
2022-08-16T05:44:22.921Z,39.33
2022-08-16T05:46:56.030Z,27.98
2022-08-16T05:49:23.802Z,40.20
2022-08-16T05:51:51.105Z,38.75
2022-08-16T05:54:24.703Z,36.95
2022-08-16T05:56:53.201Z,36.45
2022-08-16T05:59:22.198Z,35.92
2022-08-16T06:01:51.824Z,37.70
2022-08-16T06:04:36.173Z,35.45
2022-08-16T06:07:07.492Z,35.25
2022-08-16T06:09:42.984Z,40.53
2022-08-16T06:12:12.487Z,33.20
2022-08-16T06:14:40.241Z,28.05
2022-08-16T06:17:07.896Z,24.85
2022-08-16T06:19:35.760Z,34.60
2022-08-16T06:22:03.278Z,35.78
2022-08-16T06:24:54.671Z,35.05
2022-08-16T06:27:18.142Z,33.78
2022-08-16T06:29:50.073Z,31.98
2022-08-16T06:32:28.091Z,29.63
2022-08-16T06:35:01.976Z,25.63
2022-08-16T06:37:37.429Z,32.33
2022-08-16T06:40:05.478Z,28.20
2022-08-16T06:42:47.433Z,26.80
2022-08-16T06:45:15.866Z,28.38
2022-08-16T06:47:54.224Z,28.52
2022-08-16T06:50:28.614Z,33.25
2022-08-16T06:53:00.940Z,25.00
2022-08-16T06:55:35.099Z,26.20
2022-08-16T06:58:08.147Z,30.93
2022-08-16T07:00:37.732Z,33.17
2022-08-16T07:03:27.674Z,29.15
2022-08-16T07:05:58.981Z,31.25
2022-08-16T07:08:27.491Z,33.10
2022-08-16T07:10:55.337Z,33.63
2022-08-16T07:13:57.681Z,35.63
2022-08-16T07:16:15.464Z,34.85
2022-08-16T07:18:58.666Z,39.20
2022-08-16T07:21:46.161Z,41.38
2022-08-16T07:24:29.540Z,29.42
2022-08-16T07:27:00.746Z,26.67
2022-08-16T07:29:31.591Z,28.52
2022-08-16T07:32:00.666Z,20.90
2022-08-16T07:34:35.128Z,22.25
2022-08-16T07:37:07.914Z,21.02
2022-08-16T07:39:43.288Z,22.33
2022-08-16T07:42:20.194Z,28.25
2022-08-16T07:44:57.094Z,26.20
2022-08-16T07:47:31.618Z,29.77
2022-08-16T07:50:00.017Z,25.88
2022-08-16T07:52:32.924Z,24.77
2022-08-16T07:55:00.753Z,17.92
2022-08-16T07:57:28.550Z,30.00
2022-08-16T07:59:57.354Z,34.60
2022-08-16T08:02:27.380Z,24.00
2022-08-16T08:04:56.149Z,24.33
2022-08-16T08:07:28.197Z,20.70
2022-08-16T08:09:56.073Z,28.70
2022-08-16T08:12:32.533Z,29.23
2022-08-16T08:15:05.522Z,29.00
2022-08-16T08:17:42.961Z,20.95
2022-08-16T08:20:12.840Z,27.90
2022-08-16T08:23:00.231Z,30.25
2022-08-16T08:25:53.807Z,18.20
2022-08-16T08:28:17.815Z,16.40
2022-08-16T08:30:51.442Z,16.30
2022-08-16T08:33:29.408Z,31.63
2022-08-16T08:36:01.177Z,17.90
2022-08-16T08:38:45.742Z,21.40
2022-08-16T08:41:15.385Z,23.33
2022-08-16T08:43:47.168Z,18.40
2022-08-16T08:46:21.361Z,20.77
2022-08-16T08:48:59.598Z,21.52
2022-08-16T08:51:31.915Z,16.88
2022-08-16T08:53:59.701Z,19.55
2022-08-16T08:56:34.897Z,13.80
2022-08-16T08:59:06.101Z,15.35
2022-08-16T09:01:42.635Z,19.77
2022-08-16T09:04:14.412Z,16.20
2022-08-16T09:06:44.847Z,16.48
2022-08-16T09:09:16.650Z,9.65
2022-08-16T09:14:24.448Z,16.52
2022-08-16T09:17:02.751Z,13.55
2022-08-16T09:19:37.283Z,12.15
2022-08-16T09:22:20.042Z,13.70
2022-08-16T09:24:52.433Z,12.45
2022-08-16T09:27:25.381Z,13.75
2022-08-16T09:30:00.008Z,13.48
2022-08-16T09:32:30.768Z,14.93
2022-08-16T09:34:59.083Z,10.02
2022-08-16T09:37:29.811Z,14.52
2022-08-16T09:39:59.754Z,11.30
2022-08-16T09:42:28.840Z,11.48
2022-08-16T09:45:11.027Z,9.52
2022-08-16T09:47:57.480Z,9.05
2022-08-16T09:50:33.231Z,12.87
2022-08-16T09:53:07.625Z,13.68
2022-08-16T09:55:44.932Z,11.10
2022-08-16T09:58:41.418Z,12.88
2022-08-16T10:01:03.860Z,14.90
2022-08-16T10:03:32.253Z,11.13
2022-08-16T10:06:00.120Z,10.20
2022-08-16T10:08:27.730Z,9.10
2022-08-16T10:11:13.703Z,11.63
2022-08-16T10:13:43.800Z,13.73
2022-08-16T10:19:00.656Z,16.13
2022-08-16T10:21:32.125Z,15.38
2022-08-16T10:23:59.650Z,13.13
2022-08-16T10:27:17.133Z,13.40
2022-08-16T10:29:20.082Z,16.20
2022-08-16T10:31:53.910Z,16.40
2022-08-16T10:34:30.718Z,17.63
2022-08-16T10:37:00.521Z,15.77
2022-08-16T10:39:40.767Z,15.48
2022-08-16T10:42:09.345Z,17.08
2022-08-16T10:44:37.213Z,14.15
2022-08-16T10:47:04.653Z,18.95
2022-08-16T10:49:32.417Z,15.70
2022-08-16T10:52:01.277Z,13.60
2022-08-16T10:54:31.002Z,15.07
2022-08-16T10:57:00.092Z,13.50
2022-08-16T10:59:38.459Z,11.30
2022-08-16T11:02:59.018Z,12.10
2022-08-16T11:05:06.285Z,13.77
2022-08-16T11:11:00.068Z,10.50
2022-08-16T11:15:59.248Z,16.13
2022-08-16T11:19:02.875Z,12.73
2022-08-16T11:21:28.370Z,10.40
2022-08-16T11:23:59.601Z,12.77
2022-08-16T11:26:28.347Z,17.02
2022-08-16T11:29:14.016Z,10.32
2022-08-16T11:31:45.566Z,15.00
2022-08-16T11:34:19.833Z,5.33
2022-08-16T11:36:53.893Z,6.88
2022-08-16T11:39:29.452Z,7.57
2022-08-16T11:41:57.852Z,6.22
2022-08-16T11:44:40.705Z,6.60
2022-08-16T11:47:13.053Z,6.25
2022-08-16T11:49:40.393Z,10.15
2022-08-16T11:52:08.104Z,9.00
2022-08-16T11:54:36.774Z,9.52
2022-08-16T11:57:09.354Z,5.63
2022-08-16T11:59:40.038Z,9.35
2022-08-16T12:02:32.523Z,8.77
2022-08-16T12:04:56.235Z,8.02
2022-08-16T12:07:24.154Z,7.60
2022-08-16T12:09:53.297Z,7.45
2022-08-16T12:12:21.142Z,6.20
2022-08-16T12:14:59.247Z,5.35
2022-08-16T12:17:29.113Z,10.38
2022-08-16T12:19:59.492Z,10.10
2022-08-16T12:22:27.848Z,8.43
2022-08-16T12:24:55.285Z,7.38
2022-08-16T12:27:24.219Z,8.13
2022-08-16T12:29:58.234Z,10.75
2022-08-16T12:32:38.383Z,8.27
2022-08-16T12:35:10.657Z,8.65
2022-08-16T12:37:38.843Z,10.68
2022-08-16T12:40:17.182Z,11.13
2022-08-16T12:42:53.550Z,12.65
2022-08-16T12:45:22.065Z,12.60
2022-08-16T12:48:32.627Z,9.32
2022-08-16T12:50:56.973Z,10.98
2022-08-16T12:53:24.601Z,10.68
2022-08-16T12:55:52.824Z,8.65
2022-08-16T12:58:48.636Z,15.45
2022-08-16T13:01:08.152Z,12.73
2022-08-16T13:03:40.582Z,8.15
2022-08-16T13:06:08.660Z,12.10
2022-08-16T13:08:36.397Z,17.38
2022-08-16T13:11:04.361Z,14.38
2022-08-16T13:13:33.946Z,10.40
2022-08-16T13:16:10.764Z,12.70
2022-08-16T13:18:52.380Z,13.15
2022-08-16T13:21:23.327Z,11.18
2022-08-16T13:23:55.279Z,14.82
2022-08-16T13:26:23.541Z,11.77
2022-08-16T13:28:51.022Z,14.07
2022-08-16T13:31:18.396Z,12.63
2022-08-16T13:33:46.148Z,13.00
2022-08-16T13:39:01.563Z,18.52
2022-08-16T13:41:30.108Z,16.48
2022-08-16T13:43:59.254Z,17.40
2022-08-16T13:46:27.468Z,16.20
2022-08-16T13:48:55.961Z,15.95
2022-08-16T13:51:29.367Z,21.45
2022-08-16T13:55:37.847Z,19.60
2022-08-16T13:58:37.415Z,15.55
2022-08-16T14:00:56.183Z,19.50
2022-08-16T14:03:24.601Z,18.63
2022-08-16T14:05:52.912Z,18.65
2022-08-16T14:08:25.209Z,22.08
2022-08-16T14:10:54.484Z,25.08
2022-08-16T14:13:21.964Z,21.38
2022-08-16T14:15:49.672Z,21.92
2022-08-16T14:18:20.308Z,25.08
2022-08-16T14:20:51.078Z,21.27
2022-08-16T14:23:23.864Z,31.58
2022-08-16T14:25:54.024Z,22.00
2022-08-16T14:28:23.422Z,32.90
2022-08-16T14:30:51.465Z,24.02
2022-08-16T14:33:18.801Z,28.97
2022-08-16T14:35:50.537Z,20.83
2022-08-16T14:38:19.281Z,26.00
2022-08-16T14:40:55.139Z,23.52
2022-08-16T14:43:23.073Z,32.13
2022-08-16T14:45:50.722Z,28.48
2022-08-16T14:48:25.073Z,29.80
2022-08-16T14:50:53.924Z,27.92
2022-08-16T14:53:22.914Z,30.92
2022-08-16T14:55:50.760Z,26.63
2022-08-16T14:58:20.210Z,25.90
2022-08-16T15:01:02.918Z,25.98
2022-08-16T15:03:32.057Z,29.90
2022-08-16T15:06:01.850Z,22.60
2022-08-16T15:08:36.644Z,24.38
2022-08-16T15:11:05.324Z,24.83
2022-08-16T15:13:32.758Z,19.25
2022-08-16T15:16:02.809Z,20.27
2022-08-16T15:18:32.354Z,15.77
2022-08-16T15:21:03.941Z,19.55
2022-08-16T15:23:33.511Z,20.10
2022-08-16T15:26:03.102Z,19.60
2022-08-16T15:28:32.269Z,22.00
2022-08-16T15:31:03.765Z,20.60
2022-08-16T15:33:33.101Z,17.63
2022-08-16T15:36:01.682Z,13.57
2022-08-16T15:38:57.153Z,13.50
2022-08-16T15:41:31.570Z,11.80
2022-08-16T15:44:05.403Z,13.20
2022-08-16T15:46:55.398Z,14.05
2022-08-16T15:49:37.231Z,9.43
2022-08-16T15:52:06.345Z,9.23
2022-08-16T15:54:33.795Z,8.95
2022-08-16T15:57:11.063Z,10.18
2022-08-16T15:59:48.869Z,11.55
2022-08-16T16:02:27.237Z,10.38
2022-08-16T16:04:55.294Z,10.98
2022-08-16T16:07:22.631Z,6.20
2022-08-16T16:09:49.897Z,10.63
2022-08-16T16:12:50.283Z,9.07
2022-08-16T16:15:08.042Z,4.90
2022-08-16T16:17:35.522Z,6.78
2022-08-16T16:20:03.936Z,9.18
2022-08-16T16:22:31.693Z,7.68
2022-08-16T16:24:58.999Z,6.45
2022-08-16T16:27:26.471Z,7.22
2022-08-16T16:29:58.121Z,10.00
2022-08-16T16:32:34.693Z,6.90
2022-08-16T16:35:02.828Z,5.28
2022-08-16T16:37:31.194Z,9.10
2022-08-16T16:39:58.792Z,8.40
2022-08-16T16:42:30.110Z,4.00
2022-08-16T16:45:01.584Z,7.05
2022-08-16T16:47:30.078Z,5.03
2022-08-16T16:50:09.363Z,5.25
2022-08-16T16:52:43.994Z,9.98
2022-08-16T16:55:13.400Z,5.53
2022-08-16T16:58:01.149Z,7.53
2022-08-16T17:00:37.920Z,11.15
2022-08-16T17:03:17.049Z,7.38
2022-08-16T17:05:58.589Z,8.88
2022-08-16T17:08:27.914Z,8.35
2022-08-16T17:10:56.084Z,6.15
2022-08-16T17:13:24.857Z,9.43
2022-08-16T17:15:54.206Z,9.70
2022-08-16T17:19:15.466Z,11.80
2022-08-16T17:21:09.759Z,17.40
2022-08-16T17:23:58.722Z,11.23
2022-08-16T17:26:30.188Z,14.18
2022-08-16T17:29:02.125Z,13.55
2022-08-16T17:31:40.661Z,13.60
2022-08-16T17:34:28.773Z,15.77
2022-08-16T17:36:56.541Z,17.25
2022-08-16T17:39:29.313Z,22.60
2022-08-16T17:41:57.134Z,19.60
2022-08-16T17:44:24.469Z,15.75
2022-08-16T17:46:52.945Z,15.77
2022-08-16T17:49:20.742Z,23.98
2022-08-16T17:51:50.566Z,19.88
2022-08-16T17:54:30.356Z,26.40
2022-08-16T17:57:01.496Z,22.80
2022-08-16T17:59:29.493Z,24.05
2022-08-16T18:01:57.144Z,20.27
2022-08-16T18:04:43.605Z,17.67
2022-08-16T18:07:12.236Z,24.23
2022-08-16T18:09:41.922Z,26.08
2022-08-16T18:12:44.205Z,26.17
2022-08-16T18:15:06.022Z,21.33
2022-08-16T18:17:33.409Z,23.20
2022-08-16T18:20:00.787Z,27.63
2022-08-16T18:22:30.713Z,25.42
2022-08-16T18:24:59.016Z,24.38
2022-08-16T18:27:28.349Z,20.13
2022-08-16T18:29:56.041Z,15.68
2022-08-16T18:32:24.561Z,20.48
2022-08-16T18:34:52.513Z,17.48
2022-08-16T18:37:21.456Z,15.63
2022-08-16T18:39:48.796Z,17.13
2022-08-16T18:42:16.128Z,16.95
2022-08-16T18:44:44.516Z,19.58
2022-08-16T18:47:11.813Z,15.93
2022-08-16T18:49:39.076Z,17.38
2022-08-16T18:52:06.504Z,21.55
2022-08-16T18:54:58.603Z,16.52
2022-08-16T18:57:21.635Z,17.48
2022-08-16T18:59:48.886Z,19.83
2022-08-16T19:02:57.538Z,17.85
2022-08-16T19:05:12.748Z,21.80
2022-08-16T19:07:40.021Z,22.55
2022-08-16T19:10:08.001Z,18.23
2022-08-16T19:12:37.714Z,20.27
2022-08-16T19:15:13.335Z,19.88
2022-08-16T19:17:41.615Z,17.90
2022-08-16T19:20:10.863Z,15.90
2022-08-16T19:23:02.216Z,23.27
2022-08-16T19:25:47.325Z,26.88
2022-08-16T19:28:48.903Z,14.70
2022-08-16T19:31:02.486Z,16.77
2022-08-16T19:33:29.785Z,22.42
2022-08-16T19:35:57.130Z,17.73
2022-08-16T19:38:24.480Z,16.85
2022-08-16T19:40:51.724Z,21.90
2022-08-16T19:43:21.816Z,19.58
2022-08-16T19:45:49.671Z,18.25
2022-08-16T19:48:16.946Z,23.48
2022-08-16T19:50:44.188Z,21.42
2022-08-16T19:53:19.226Z,20.50
2022-08-16T19:55:47.675Z,22.40
2022-08-16T19:58:16.882Z,19.77
2022-08-16T20:00:45.641Z,17.63
2022-08-16T20:03:14.646Z,23.98
2022-08-16T20:05:42.986Z,21.52
2022-08-16T20:08:11.334Z,25.98
2022-08-16T20:10:39.149Z,21.15
2022-08-16T20:13:11.512Z,21.70
2022-08-16T20:15:40.637Z,26.85
2022-08-16T20:18:21.243Z,23.38
2022-08-16T20:20:53.134Z,25.08
2022-08-16T20:23:24.344Z,23.92
2022-08-16T20:25:53.761Z,30.27
2022-08-16T20:28:40.763Z,24.88
2022-08-16T20:31:08.364Z,24.17
2022-08-16T20:33:35.606Z,29.50
2022-08-16T20:36:02.849Z,28.35
2022-08-16T20:38:31.445Z,28.63
2022-08-16T20:40:58.692Z,25.67
2022-08-16T20:43:26.026Z,29.80
2022-08-16T20:45:53.538Z,28.42
2022-08-16T20:48:20.780Z,28.73
2022-08-16T20:50:48.033Z,25.42
2022-08-16T20:53:15.407Z,23.20
2022-08-16T20:55:44.644Z,25.25
2022-08-16T20:58:12.102Z,25.83
2022-08-16T21:00:39.448Z,25.95
2022-08-16T21:03:08.156Z,28.58
2022-08-16T21:05:35.479Z,28.17
2022-08-16T21:08:06.939Z,30.58
2022-08-16T21:10:50.359Z,27.63
2022-08-16T21:13:18.022Z,32.22
2022-08-16T21:15:45.346Z,28.38
2022-08-16T21:18:12.757Z,30.27
2022-08-16T21:20:40.066Z,31.92
2022-08-16T21:23:09.986Z,30.52
2022-08-16T21:25:39.576Z,36.65
2022-08-16T21:28:40.689Z,39.30
2022-08-16T21:30:59.693Z,47.83
2022-08-16T21:33:27.015Z,43.65
2022-08-16T21:35:55.564Z,45.40
2022-08-16T21:38:29.931Z,43.65
2022-08-16T21:40:58.567Z,40.38
2022-08-16T21:43:27.601Z,42.80
2022-08-16T21:45:55.649Z,43.85
2022-08-16T21:48:35.142Z,46.55
2022-08-16T21:51:04.858Z,48.05
2022-08-16T21:53:32.262Z,41.67
2022-08-16T21:56:00.171Z,51.13
2022-08-16T21:58:27.590Z,50.38
2022-08-16T22:00:54.959Z,42.95
2022-08-16T22:03:23.430Z,44.55
2022-08-16T22:06:12.008Z,47.45
2022-08-16T22:08:45.651Z,50.67
2022-08-16T22:11:17.732Z,47.30
2022-08-16T22:13:58.155Z,44.55
2022-08-16T22:16:27.706Z,45.90
2022-08-16T22:18:55.134Z,43.55
2022-08-16T22:21:22.432Z,52.33
2022-08-16T22:23:57.168Z,49.17
2022-08-16T22:26:30.593Z,48.92
2022-08-16T22:29:03.372Z,48.42
2022-08-16T22:31:31.140Z,53.90
2022-08-16T22:33:58.490Z,55.47
2022-08-16T22:36:28.202Z,50.90
2022-08-16T22:39:00.033Z,50.80
2022-08-16T22:41:28.202Z,49.58
2022-08-16T22:43:55.759Z,49.83
2022-08-16T22:46:23.183Z,53.25
2022-08-16T22:48:50.938Z,54.75
2022-08-16T22:51:19.195Z,49.47
2022-08-16T22:53:46.517Z,55.78
2022-08-16T22:56:15.545Z,50.85
2022-08-16T22:58:43.116Z,52.30
2022-08-16T23:01:12.131Z,58.08
2022-08-16T23:03:39.638Z,50.67
2022-08-16T23:06:07.494Z,54.15
2022-08-16T23:08:39.013Z,52.92
2022-08-16T23:11:07.364Z,49.83
2022-08-16T23:13:34.633Z,51.47
2022-08-16T23:16:10.698Z,57.80
2022-08-16T23:18:39.640Z,52.03
2022-08-16T23:21:08.396Z,53.70
2022-08-16T23:23:35.795Z,49.08
2022-08-16T23:26:45.036Z,57.75
2022-08-16T23:28:51.375Z,57.63
2022-08-16T23:31:18.683Z,53.85
2022-08-16T23:33:46.119Z,52.88
2022-08-16T23:36:13.703Z,58.63
2022-08-16T23:38:41.803Z,57.05
2022-08-16T23:41:11.531Z,63.55
2022-08-16T23:43:41.896Z,64.93
2022-08-16T23:46:11.710Z,60.80
2022-08-16T23:49:55.703Z,62.70
2022-08-16T23:51:26.528Z,65.28
2022-08-16T23:53:55.660Z,61.50
2022-08-16T23:56:23.128Z,60.78
2022-08-16T23:58:54.276Z,65.82
